createdAt,value
2023-01-09T00:00:12.657Z,36.67
2023-01-09T00:02:41.996Z,35.20
2023-01-09T00:05:13.312Z,46.13
2023-01-09T00:07:42.933Z,42.13
2023-01-09T00:10:14.023Z,42.78
2023-01-09T00:12:43.700Z,37.33
2023-01-09T00:15:13.655Z,40.10
2023-01-09T00:17:43.014Z,43.63
2023-01-09T00:20:13.046Z,43.38
2023-01-09T00:22:42.482Z,46.33
2023-01-09T00:25:12.117Z,40.40
2023-01-09T00:27:41.419Z,41.85
2023-01-09T00:30:11.962Z,47.20
2023-01-09T00:32:42.040Z,40.65
2023-01-09T00:35:17.880Z,40.15
2023-01-09T00:37:47.404Z,52.10
2023-01-09T00:40:18.868Z,54.03
2023-01-09T00:42:57.914Z,64.53
2023-01-09T00:45:33.282Z,64.38
2023-01-09T00:48:14.051Z,73.28
2023-01-09T00:50:44.030Z,52.78
2023-01-09T00:53:20.107Z,58.47
2023-01-09T00:55:49.307Z,59.45
2023-01-09T00:58:19.540Z,50.08
2023-01-09T01:00:49.488Z,47.70
2023-01-09T01:03:18.662Z,44.25
2023-01-09T01:06:05.973Z,49.50
2023-01-09T01:08:35.084Z,45.15
2023-01-09T01:11:11.300Z,50.63
2023-01-09T01:13:42.616Z,49.15
2023-01-09T01:16:14.678Z,57.30
2023-01-09T01:18:44.015Z,57.47
2023-01-09T01:21:16.528Z,51.42
2023-01-09T01:23:46.205Z,55.83
2023-01-09T01:26:18.282Z,43.88
2023-01-09T01:28:49.627Z,55.20
2023-01-09T01:31:20.980Z,51.60
2023-01-09T01:33:52.754Z,50.63
2023-01-09T01:36:21.843Z,54.40
2023-01-09T01:38:51.089Z,43.60
2023-01-09T01:41:30.316Z,40.53
2023-01-09T01:44:04.353Z,43.50
2023-01-09T01:46:35.746Z,39.05
2023-01-09T01:49:21.344Z,45.40
2023-01-09T01:51:54.821Z,42.20
2023-01-09T01:54:36.387Z,35.65
2023-01-09T01:57:09.432Z,44.50
2023-01-09T01:59:54.608Z,41.92
2023-01-09T02:02:32.915Z,32.67
2023-01-09T02:05:07.585Z,36.85
2023-01-09T02:07:39.143Z,39.17
2023-01-09T02:10:09.444Z,37.47
2023-01-09T02:12:39.688Z,36.72
2023-01-09T02:15:14.751Z,29.58
2023-01-09T02:18:30.997Z,37.55
2023-01-09T02:21:26.404Z,35.83
2023-01-09T02:24:40.737Z,28.77
2023-01-09T02:27:21.823Z,34.42
2023-01-09T02:30:27.955Z,29.05
2023-01-09T02:33:20.887Z,29.75
2023-01-09T02:36:08.175Z,32.33
2023-01-09T02:39:09.158Z,28.40
2023-01-09T02:41:44.815Z,44.53
2023-01-09T02:44:28.573Z,31.80
2023-01-09T02:47:32.370Z,34.30
2023-01-09T02:50:06.199Z,34.83
2023-01-09T02:53:05.547Z,34.40
2023-01-09T02:55:54.303Z,29.73
2023-01-09T02:59:00.771Z,27.05
2023-01-09T03:02:02.237Z,29.63
2023-01-09T03:04:44.842Z,21.42
2023-01-09T03:07:37.927Z,24.58
2023-01-09T03:11:08.750Z,23.25
2023-01-09T03:13:52.447Z,25.05
2023-01-09T03:16:30.116Z,28.15
2023-01-09T03:19:01.768Z,24.75
2023-01-09T03:21:33.210Z,22.00
2023-01-09T03:24:04.091Z,24.27
2023-01-09T03:26:34.102Z,22.17
2023-01-09T03:29:03.723Z,20.63
2023-01-09T03:31:33.017Z,29.95
2023-01-09T03:34:02.283Z,28.77
2023-01-09T03:36:31.508Z,27.77
2023-01-09T03:39:00.710Z,27.90
2023-01-09T03:41:29.872Z,25.42
2023-01-09T03:43:59.038Z,26.20
2023-01-09T03:46:28.272Z,24.45
2023-01-09T03:48:57.552Z,24.20
2023-01-09T03:51:26.752Z,23.73
2023-01-09T03:53:56.046Z,28.35
2023-01-09T03:56:26.521Z,23.30
2023-01-09T03:58:57.028Z,24.58
2023-01-09T04:01:26.349Z,30.73
2023-01-09T04:03:55.600Z,21.98
2023-01-09T04:06:25.022Z,21.48
2023-01-09T04:08:54.175Z,21.95
2023-01-09T04:11:23.511Z,21.25
2023-01-09T04:13:52.748Z,19.75
2023-01-09T04:16:22.087Z,19.70
2023-01-09T04:18:51.304Z,26.75
2023-01-09T04:21:22.053Z,28.05
2023-01-09T04:23:51.352Z,20.73
2023-01-09T04:26:20.619Z,21.13
2023-01-09T04:28:50.082Z,23.00
2023-01-09T04:31:19.267Z,27.17
2023-01-09T04:33:48.518Z,15.85
2023-01-09T04:36:17.708Z,18.38
2023-01-09T04:38:46.868Z,16.83
2023-01-09T04:41:36.122Z,19.13
2023-01-09T04:44:05.578Z,20.88
2023-01-09T04:46:34.807Z,18.15
2023-01-09T04:49:04.089Z,16.83
2023-01-09T04:51:33.365Z,13.93
2023-01-09T04:54:02.611Z,16.50
2023-01-09T04:56:31.966Z,11.93
2023-01-09T04:59:01.851Z,11.73
2023-01-09T05:01:31.159Z,14.27
2023-01-09T05:04:00.519Z,15.23
2023-01-09T05:06:30.022Z,15.13
2023-01-09T05:08:59.592Z,14.15
2023-01-09T05:11:29.536Z,17.98
2023-01-09T05:13:58.668Z,15.98
2023-01-09T05:16:27.750Z,11.57
2023-01-09T05:18:58.185Z,16.33
2023-01-09T05:21:27.652Z,12.35
2023-01-09T05:23:56.776Z,13.13
2023-01-09T05:26:26.240Z,15.73
2023-01-09T05:28:59.697Z,11.90
2023-01-09T05:31:29.633Z,10.38
2023-01-09T05:34:00.275Z,17.13
2023-01-09T05:36:29.394Z,14.82
2023-01-09T05:39:03.545Z,17.80
2023-01-09T05:41:32.620Z,9.77
2023-01-09T05:44:01.803Z,11.77
2023-01-09T05:46:30.958Z,13.75
2023-01-09T05:49:00.381Z,17.48
2023-01-09T05:51:29.505Z,13.90
2023-01-09T05:53:59.078Z,19.08
2023-01-09T05:56:28.288Z,10.32
2023-01-09T05:58:58.755Z,9.80
2023-01-09T06:01:28.033Z,11.57
2023-01-09T06:03:57.291Z,11.98
2023-01-09T06:06:27.024Z,12.48
2023-01-09T06:08:56.247Z,11.75
2023-01-09T06:11:25.414Z,13.20
2023-01-09T06:13:54.608Z,12.07
2023-01-09T06:16:23.825Z,14.07
2023-01-09T06:18:53.056Z,11.98
2023-01-09T06:21:22.265Z,11.95
2023-01-09T06:23:51.423Z,11.32
2023-01-09T06:26:20.620Z,12.27
2023-01-09T06:28:49.810Z,12.60
2023-01-09T06:31:19.059Z,16.77
2023-01-09T06:33:48.319Z,9.25
2023-01-09T06:36:17.799Z,10.80
2023-01-09T06:38:46.969Z,13.88
2023-01-09T06:41:16.170Z,14.45
2023-01-09T06:43:45.493Z,18.02
2023-01-09T06:46:14.749Z,15.00
2023-01-09T06:48:43.986Z,8.38
2023-01-09T06:51:13.167Z,7.60
2023-01-09T06:53:42.380Z,11.65
2023-01-09T06:56:11.575Z,6.75
2023-01-09T06:58:40.844Z,9.48
2023-01-09T07:01:10.337Z,9.65
2023-01-09T07:03:39.650Z,11.27
2023-01-09T07:06:09.095Z,8.65
2023-01-09T07:08:38.348Z,12.57
2023-01-09T07:11:07.655Z,11.93
2023-01-09T07:13:39.284Z,8.57
2023-01-09T07:16:09.204Z,14.27
2023-01-09T07:18:38.451Z,9.52
2023-01-09T07:21:10.782Z,9.05
2023-01-09T07:23:39.993Z,6.63
2023-01-09T07:26:09.171Z,5.97
2023-01-09T07:28:38.478Z,6.30
2023-01-09T07:31:08.589Z,8.68
2023-01-09T07:33:38.088Z,5.15
2023-01-09T07:36:07.804Z,10.48
2023-01-09T07:38:37.592Z,9.30
2023-01-09T07:41:07.185Z,12.63
2023-01-09T07:43:37.127Z,8.18
2023-01-09T07:46:07.508Z,9.57
2023-01-09T07:48:36.718Z,5.38
2023-01-09T07:51:07.178Z,8.90
2023-01-09T07:53:36.365Z,10.55
2023-01-09T07:56:05.816Z,10.10
2023-01-09T07:58:35.045Z,8.38
2023-01-09T08:01:05.572Z,10.82
2023-01-09T08:03:35.269Z,9.43
2023-01-09T08:06:08.168Z,9.75
2023-01-09T08:08:37.433Z,11.70
2023-01-09T08:11:06.675Z,6.45
2023-01-09T08:13:35.871Z,9.45
2023-01-09T08:16:05.143Z,7.22
2023-01-09T08:18:34.364Z,11.10
2023-01-09T08:21:03.455Z,13.00
2023-01-09T08:23:32.522Z,8.45
2023-01-09T08:26:01.707Z,11.57
2023-01-09T08:28:30.860Z,16.13
2023-01-09T08:31:01.101Z,11.70
2023-01-09T08:33:33.915Z,7.35
2023-01-09T08:36:03.871Z,9.60
2023-01-09T08:38:33.744Z,12.55
2023-01-09T08:41:23.207Z,17.92
2023-01-09T08:44:11.110Z,24.05
2023-01-09T08:46:58.813Z,10.85
2023-01-09T08:49:28.541Z,14.43
2023-01-09T08:51:58.320Z,22.98
2023-01-09T08:54:28.108Z,11.15
2023-01-09T08:56:57.980Z,6.90
2023-01-09T08:59:28.057Z,12.43
2023-01-09T09:01:58.781Z,13.35
2023-01-09T09:04:30.122Z,17.05
2023-01-09T09:06:59.372Z,10.00
2023-01-09T09:09:28.552Z,13.20
2023-01-09T09:11:57.778Z,12.48
2023-01-09T09:14:45.344Z,10.40
2023-01-09T09:17:14.629Z,13.73
2023-01-09T09:19:43.787Z,12.85
2023-01-09T09:22:12.941Z,13.18
2023-01-09T09:24:42.206Z,15.57
2023-01-09T09:27:11.376Z,10.40
2023-01-09T09:29:40.534Z,8.25
2023-01-09T09:32:09.759Z,14.38
2023-01-09T09:34:39.168Z,11.07
2023-01-09T09:37:08.954Z,15.85
2023-01-09T09:39:38.236Z,21.85
2023-01-09T09:42:36.015Z,22.75
2023-01-09T09:45:08.441Z,15.68
2023-01-09T09:47:57.052Z,19.55
2023-01-09T09:50:47.752Z,19.90
2023-01-09T09:53:36.905Z,13.15
2023-01-09T09:56:07.444Z,14.63
2023-01-09T09:58:47.581Z,17.77
2023-01-09T10:01:43.002Z,31.35
2023-01-09T10:04:20.027Z,18.20
2023-01-09T10:07:07.092Z,27.63
2023-01-09T10:10:01.586Z,21.42
2023-01-09T10:12:58.439Z,25.35
2023-01-09T10:16:00.030Z,21.27
2023-01-09T10:18:45.361Z,19.55
2023-01-09T10:22:07.853Z,13.43
2023-01-09T10:25:12.177Z,21.05
2023-01-09T10:28:31.015Z,24.33
2023-01-09T10:31:30.416Z,28.05
2023-01-09T10:34:11.873Z,26.38
2023-01-09T10:37:20.165Z,18.27
2023-01-09T10:40:22.003Z,19.13
2023-01-09T10:43:03.346Z,18.88
2023-01-09T10:45:56.627Z,15.50
2023-01-09T10:48:37.010Z,27.13
2023-01-09T10:51:25.321Z,20.83
2023-01-09T10:53:57.627Z,23.42
2023-01-09T10:56:38.335Z,24.52
2023-01-09T10:59:11.102Z,20.90
2023-01-09T11:01:44.312Z,17.10
2023-01-09T11:04:38.581Z,16.77
2023-01-09T11:07:33.494Z,15.55
2023-01-09T11:10:12.722Z,16.92
2023-01-09T11:12:42.758Z,18.05
2023-01-09T11:15:30.057Z,15.13
2023-01-09T11:18:23.128Z,21.67
2023-01-09T11:20:53.762Z,21.08
2023-01-09T11:23:34.979Z,20.17
2023-01-09T11:26:05.034Z,13.95
2023-01-09T11:28:34.294Z,16.27
2023-01-09T11:31:04.645Z,20.80
2023-01-09T11:33:49.201Z,17.73
2023-01-09T11:36:20.080Z,15.90
2023-01-09T11:38:56.592Z,12.25
2023-01-09T11:41:31.676Z,16.83
2023-01-09T11:44:04.109Z,14.77
2023-01-09T11:46:45.658Z,12.77
2023-01-09T11:49:25.417Z,17.90
2023-01-09T11:52:23.448Z,13.48
2023-01-09T11:55:06.503Z,16.80
2023-01-09T11:57:35.929Z,17.60
2023-01-09T12:00:27.677Z,14.70
2023-01-09T12:03:47.155Z,20.90
2023-01-09T12:06:49.407Z,17.25
2023-01-09T12:10:01.531Z,20.40
2023-01-09T12:13:00.527Z,19.05
2023-01-09T12:15:41.793Z,21.27
2023-01-09T12:18:33.127Z,19.13
2023-01-09T12:21:30.265Z,20.30
2023-01-09T12:24:23.401Z,12.57
2023-01-09T12:27:01.167Z,12.68
2023-01-09T12:29:38.933Z,15.30
2023-01-09T12:32:33.725Z,16.38
2023-01-09T12:35:42.483Z,11.93
2023-01-09T12:38:41.553Z,11.13
2023-01-09T12:41:23.831Z,9.77
2023-01-09T12:44:34.623Z,14.07
2023-01-09T12:47:34.680Z,12.02
2023-01-09T12:50:20.112Z,12.02
2023-01-09T12:53:23.113Z,11.98
2023-01-09T12:56:20.388Z,11.30
2023-01-09T12:59:01.871Z,10.30
2023-01-09T13:01:47.388Z,11.73
2023-01-09T13:04:35.809Z,9.00
2023-01-09T13:07:21.624Z,23.55
2023-01-09T13:10:34.566Z,9.30
2023-01-09T13:13:19.816Z,7.72
2023-01-09T13:16:12.006Z,11.48
2023-01-09T13:18:53.414Z,9.68
2023-01-09T13:21:23.284Z,9.50
2023-01-09T13:24:22.203Z,8.40
2023-01-09T13:27:21.215Z,10.07
2023-01-09T13:30:03.157Z,8.70
2023-01-09T13:32:59.650Z,14.57
2023-01-09T13:35:29.153Z,15.15
2023-01-09T13:37:58.720Z,15.57
2023-01-09T13:40:39.333Z,11.95
2023-01-09T13:43:15.710Z,9.57
2023-01-09T13:45:58.819Z,11.35
2023-01-09T13:48:40.692Z,8.57
2023-01-09T13:51:48.347Z,10.52
2023-01-09T13:55:01.912Z,10.75
2023-01-09T13:57:46.676Z,11.05
2023-01-09T14:00:22.453Z,13.60
2023-01-09T14:03:18.313Z,11.27
2023-01-09T14:05:52.625Z,12.55
2023-01-09T14:08:27.256Z,18.23
2023-01-09T14:11:04.399Z,12.85
2023-01-09T14:13:46.119Z,17.00
2023-01-09T14:16:24.751Z,9.95
2023-01-09T14:19:02.536Z,12.77
2023-01-09T14:21:58.276Z,12.57
2023-01-09T14:24:34.964Z,10.02
2023-01-09T14:27:04.385Z,12.52
2023-01-09T14:29:33.518Z,12.70
2023-01-09T14:32:24.227Z,10.73
2023-01-09T14:35:20.579Z,14.65
2023-01-09T14:38:06.459Z,8.20
2023-01-09T14:40:47.284Z,12.23
2023-01-09T14:44:06.142Z,12.82
2023-01-09T14:46:39.989Z,9.50
2023-01-09T14:49:26.509Z,11.82
2023-01-09T14:51:59.780Z,11.90
2023-01-09T14:54:35.423Z,10.07
2023-01-09T14:57:05.037Z,9.45
2023-01-09T14:59:36.440Z,9.23
2023-01-09T15:02:05.772Z,10.10
2023-01-09T15:04:42.431Z,9.65
2023-01-09T15:07:26.897Z,12.15
2023-01-09T15:10:06.782Z,12.80
2023-01-09T15:12:36.865Z,13.80
2023-01-09T15:15:09.560Z,12.52
2023-01-09T15:17:40.340Z,16.05
2023-01-09T15:20:21.889Z,12.55
2023-01-09T15:22:54.597Z,10.20
2023-01-09T15:25:40.393Z,9.25
2023-01-09T15:28:29.968Z,11.23
2023-01-09T15:31:15.959Z,22.75
2023-01-09T15:33:48.696Z,14.02
2023-01-09T15:36:31.854Z,10.90
2023-01-09T15:39:01.930Z,7.32
2023-01-09T15:41:51.677Z,9.05
2023-01-09T15:44:29.420Z,8.80
2023-01-09T15:47:03.305Z,10.48
2023-01-09T15:49:34.703Z,10.25
2023-01-09T15:52:05.602Z,8.85
2023-01-09T15:54:36.240Z,11.50
2023-01-09T15:57:26.892Z,9.57
2023-01-09T15:59:59.308Z,11.02
2023-01-09T16:02:47.243Z,10.20
2023-01-09T16:05:18.877Z,18.17
2023-01-09T16:07:50.475Z,10.10
2023-01-09T16:11:01.954Z,15.45
2023-01-09T16:13:36.255Z,13.77
2023-01-09T16:16:06.115Z,13.35
2023-01-09T16:18:50.733Z,9.50
2023-01-09T16:21:35.155Z,10.95
2023-01-09T16:24:49.548Z,9.93
2023-01-09T16:27:26.980Z,13.93
2023-01-09T16:30:09.740Z,11.50
2023-01-09T16:32:52.346Z,10.05
2023-01-09T16:35:27.104Z,10.63
2023-01-09T16:37:56.489Z,10.07
2023-01-09T16:40:28.196Z,11.10
2023-01-09T16:43:02.581Z,9.13
2023-01-09T16:45:36.507Z,11.82
2023-01-09T16:48:22.631Z,8.82
2023-01-09T16:50:51.891Z,14.15
2023-01-09T16:53:26.657Z,15.60
2023-01-09T16:55:56.425Z,15.88
2023-01-09T16:58:36.392Z,17.83
2023-01-09T17:01:06.538Z,15.10
2023-01-09T17:03:35.695Z,16.25
2023-01-09T17:06:07.240Z,12.65
2023-01-09T17:08:39.593Z,12.13
2023-01-09T17:11:35.906Z,12.88
2023-01-09T17:14:05.265Z,14.70
2023-01-09T17:16:39.824Z,15.55
2023-01-09T17:19:14.902Z,14.63
2023-01-09T17:21:44.059Z,18.95
2023-01-09T17:24:31.457Z,14.27
2023-01-09T17:27:21.566Z,17.70
2023-01-09T17:29:50.847Z,14.93
2023-01-09T17:32:21.332Z,12.93
2023-01-09T17:34:50.472Z,14.68
2023-01-09T17:37:21.002Z,15.27
2023-01-09T17:39:50.177Z,14.23
2023-01-09T17:51:32.576Z,17.75
2023-01-09T17:54:01.767Z,21.77
2023-01-09T17:56:36.158Z,17.55
2023-01-09T17:59:07.260Z,12.32
2023-01-09T18:01:37.704Z,20.17
2023-01-09T18:04:07.026Z,17.60
2023-01-09T18:06:40.087Z,15.15
2023-01-09T18:09:11.883Z,17.15
2023-01-09T18:11:42.837Z,13.70
2023-01-09T18:14:13.859Z,17.55
2023-01-09T18:16:43.308Z,15.65
2023-01-09T18:19:12.915Z,13.85
2023-01-09T18:21:42.083Z,15.95
2023-01-09T18:24:11.458Z,18.90
2023-01-09T18:26:40.683Z,12.68
2023-01-09T18:29:12.319Z,12.88
2023-01-09T18:31:41.642Z,14.48
2023-01-09T18:34:12.081Z,23.20
2023-01-09T18:36:41.426Z,14.40
2023-01-09T18:39:12.855Z,12.18
2023-01-09T18:41:42.076Z,11.50
2023-01-09T18:44:11.553Z,14.23
2023-01-09T18:46:43.087Z,13.45
2023-01-09T18:49:12.424Z,13.32
2023-01-09T18:51:41.958Z,14.18
2023-01-09T18:54:12.700Z,14.35
2023-01-09T18:56:42.305Z,17.75
2023-01-09T18:59:13.319Z,15.10
2023-01-09T19:01:42.524Z,16.45
2023-01-09T19:04:11.792Z,17.58
2023-01-09T19:06:41.029Z,15.07
2023-01-09T19:09:10.246Z,21.05
2023-01-09T19:11:39.455Z,14.30
2023-01-09T19:14:08.705Z,18.25
2023-01-09T19:16:37.949Z,15.55
2023-01-09T19:19:09.496Z,15.25
2023-01-09T19:21:38.775Z,15.18
2023-01-09T19:24:08.418Z,12.43
2023-01-09T19:26:37.676Z,33.03
2023-01-09T19:29:06.847Z,17.83
2023-01-09T19:31:36.283Z,14.15
2023-01-09T19:34:05.501Z,17.92
2023-01-09T19:36:35.076Z,14.73
2023-01-09T19:39:06.235Z,19.45
2023-01-09T19:41:35.409Z,15.68
2023-01-09T19:44:04.948Z,18.02
2023-01-09T19:46:36.376Z,14.35
2023-01-09T19:49:07.035Z,15.18
2023-01-09T19:51:36.521Z,16.85
2023-01-09T19:56:41.603Z,18.13
2023-01-09T19:59:13.205Z,16.73
2023-01-09T20:01:43.484Z,15.55
2023-01-09T20:04:18.342Z,13.65
2023-01-09T20:06:50.811Z,15.75
2023-01-09T20:09:28.314Z,16.42
2023-01-09T20:11:57.675Z,21.08
2023-01-09T20:14:26.947Z,16.38
2023-01-09T20:17:00.865Z,13.45
2023-01-09T20:19:31.110Z,13.88
2023-01-09T20:22:01.937Z,18.92
2023-01-09T20:24:31.337Z,18.05
2023-01-09T20:27:01.661Z,14.40
2023-01-09T20:29:30.840Z,15.60
2023-01-09T20:32:00.747Z,26.10
2023-01-09T20:34:29.944Z,21.40
2023-01-09T20:36:59.050Z,18.17
2023-01-09T20:39:28.180Z,16.90
2023-01-09T20:41:57.467Z,14.90
2023-01-09T20:44:26.722Z,14.15
2023-01-09T20:46:55.910Z,14.68
2023-01-09T20:49:25.149Z,15.55
2023-01-09T20:51:55.052Z,15.23
2023-01-09T20:54:24.605Z,10.90
2023-01-09T20:56:54.604Z,15.40
2023-01-09T20:59:24.491Z,14.88
2023-01-09T21:01:53.978Z,13.48
2023-01-09T21:04:23.229Z,14.55
2023-01-09T21:06:52.434Z,25.25
2023-01-09T21:09:21.817Z,16.23
2023-01-09T21:11:50.934Z,14.73
2023-01-09T21:14:21.055Z,14.88
2023-01-09T21:16:54.981Z,17.15
2023-01-09T21:19:24.996Z,17.63
2023-01-09T21:21:54.134Z,16.30
2023-01-09T21:24:23.301Z,10.88
2023-01-09T21:26:52.405Z,16.02
2023-01-09T21:29:21.536Z,13.98
2023-01-09T21:31:50.674Z,13.05
2023-01-09T21:34:21.758Z,15.27
2023-01-09T21:36:51.269Z,16.02
2023-01-09T21:39:22.283Z,17.13
2023-01-09T21:42:09.528Z,18.77
2023-01-09T21:44:57.124Z,11.23
2023-01-09T21:47:26.345Z,12.10
2023-01-09T21:49:55.448Z,11.88
2023-01-09T21:52:26.623Z,15.93
2023-01-09T21:54:56.812Z,12.02
2023-01-09T21:57:26.362Z,15.38
2023-01-09T21:59:55.615Z,12.55
2023-01-09T22:02:24.860Z,12.43
2023-01-09T22:04:54.540Z,11.98
2023-01-09T22:07:23.726Z,11.77
2023-01-09T22:09:53.530Z,12.38
2023-01-09T22:12:22.770Z,20.13
2023-01-09T22:14:51.900Z,10.90
2023-01-09T22:17:21.128Z,10.50
2023-01-09T22:19:50.440Z,10.77
2023-01-09T22:22:19.674Z,10.85
2023-01-09T22:24:49.102Z,10.68
2023-01-09T22:27:18.421Z,13.93
2023-01-09T22:29:47.850Z,11.95
2023-01-09T22:32:17.150Z,11.32
2023-01-09T22:34:46.457Z,11.32
2023-01-09T22:37:16.501Z,13.75
2023-01-09T22:39:46.303Z,10.25
2023-01-09T22:42:17.726Z,11.43
2023-01-09T22:44:47.043Z,9.98
2023-01-09T22:47:16.225Z,12.57
2023-01-09T22:49:52.707Z,10.20
2023-01-09T22:52:23.061Z,12.30
2023-01-09T22:54:52.271Z,10.05
2023-01-09T22:57:21.524Z,9.55
2023-01-09T22:59:51.080Z,7.32
2023-01-09T23:02:20.784Z,17.95
2023-01-09T23:04:49.974Z,10.25
2023-01-09T23:07:19.495Z,14.93
2023-01-09T23:09:48.755Z,13.30
2023-01-09T23:12:17.979Z,12.45
2023-01-09T23:14:47.225Z,15.60
2023-01-09T23:17:16.439Z,10.73
2023-01-09T23:19:45.665Z,9.98
2023-01-09T23:22:14.933Z,8.85
2023-01-09T23:24:44.045Z,10.63
2023-01-09T23:27:13.328Z,8.20
2023-01-09T23:29:42.596Z,10.07
2023-01-09T23:32:14.933Z,11.65
2023-01-09T23:34:44.096Z,10.30
2023-01-09T23:37:13.364Z,14.38
2023-01-09T23:39:42.621Z,12.57
2023-01-09T23:42:34.046Z,12.25
2023-01-09T23:45:03.426Z,11.13
2023-01-09T23:47:32.541Z,8.23
2023-01-09T23:50:01.721Z,12.63
2023-01-09T23:52:31.056Z,16.75
2023-01-09T23:55:11.945Z,12.88
2023-01-09T23:57:41.321Z,10.55
